createdAt,value
2023-05-19T00:02:11.822Z,12
2023-05-19T00:07:30.341Z,12
2023-05-19T00:12:49.270Z,11.94
2023-05-19T00:23:05.777Z,11.75
2023-05-19T00:28:24.452Z,11.75
2023-05-19T00:33:43.004Z,11.75
2023-05-19T00:39:01.769Z,11.75
2023-05-19T00:44:20.427Z,11.5
2023-05-19T00:49:39.095Z,11.38
2023-05-19T00:54:57.702Z,11.38
2023-05-19T01:00:16.124Z,11.12
2023-05-19T01:05:34.596Z,10.75
2023-05-19T01:10:54.286Z,10.56
2023-05-19T01:16:13.116Z,10.44
2023-05-19T01:21:31.623Z,10.5
2023-05-19T01:26:50.033Z,10.56
2023-05-19T01:32:08.877Z,10.25
2023-05-19T01:42:26.252Z,10
2023-05-19T01:47:46.841Z,10.13
2023-05-19T01:53:05.082Z,10.13
2023-05-19T01:58:23.311Z,10.06
2023-05-19T02:03:42.097Z,10.19
2023-05-19T02:09:00.730Z,10.19
2023-05-19T02:14:19.501Z,10.31
2023-05-19T02:19:38.139Z,10.13
2023-05-19T02:24:56.511Z,10.25
2023-05-19T02:30:15.112Z,10.44
2023-05-19T02:35:33.647Z,10.19
2023-05-19T02:40:52.357Z,10.19
2023-05-19T02:46:11.053Z,10.31
2023-05-19T02:51:29.424Z,10.25
2023-05-19T02:56:47.618Z,10.44
2023-05-19T03:02:06.323Z,10.19
2023-05-19T03:07:27.546Z,10.38
2023-05-19T03:12:46.264Z,10.38
2023-05-19T03:18:04.894Z,10.63
2023-05-19T03:23:23.130Z,10.56
2023-05-19T03:28:41.414Z,10.56
2023-05-19T03:34:00.969Z,10.69
2023-05-19T03:39:19.655Z,10.5
2023-05-19T03:44:37.794Z,10.56
2023-05-19T03:49:56.155Z,10.44
2023-05-19T03:55:14.809Z,10.38
2023-05-19T04:00:33.646Z,10.31
2023-05-19T04:05:52.047Z,10.56
2023-05-19T04:11:10.708Z,10.63
2023-05-19T04:16:29.480Z,10.56
2023-05-19T04:21:48.087Z,10.75
2023-05-19T04:27:06.886Z,10.75
2023-05-19T04:32:25.491Z,10.63
2023-05-19T04:37:44.082Z,10.75
2023-05-19T04:43:03.166Z,10.69
2023-05-19T04:48:21.659Z,10.56
2023-05-19T04:53:40.512Z,10.31
2023-05-19T04:59:00.205Z,10.25
2023-05-19T05:04:18.515Z,10.31
2023-05-19T05:09:36.839Z,10.5
2023-05-19T05:14:55.548Z,10.56
2023-05-19T05:20:14.232Z,10.69
2023-05-19T05:30:31.571Z,10.75
2023-05-19T05:35:50.388Z,10.94
2023-05-19T05:41:09.279Z,11.12
2023-05-19T05:46:28.056Z,11.25
2023-05-19T05:51:54.562Z,11.44
2023-05-19T05:57:05.281Z,11.63
2023-05-19T06:02:23.652Z,11.81
2023-05-19T06:07:42.316Z,11.94
2023-05-19T06:13:01.143Z,12
2023-05-19T06:18:19.861Z,12.06
2023-05-19T06:23:38.571Z,12.13
2023-05-19T06:28:56.888Z,12.31
2023-05-19T06:34:15.322Z,12.5
2023-05-19T06:39:34.172Z,12.81
2023-05-19T06:44:52.485Z,13
2023-05-19T06:50:11.129Z,13.19
2023-05-19T06:55:30.820Z,13.38
2023-05-19T07:00:49.749Z,13.5
2023-05-19T07:06:08.621Z,13.62
2023-05-19T07:11:28.019Z,14
2023-05-19T07:16:47.831Z,14.44
2023-05-19T07:22:06.634Z,14.38
2023-05-19T07:27:25.371Z,15.31
2023-05-19T07:32:44.555Z,15.13
2023-05-19T07:38:03.457Z,16.37
2023-05-19T07:43:23.300Z,16.87
2023-05-19T07:48:41.953Z,17.25
2023-05-19T07:54:00.592Z,17.56
2023-05-19T07:59:18.950Z,17.81
2023-05-19T08:04:37.547Z,18.25
2023-05-19T08:09:55.933Z,18.31
2023-05-19T08:15:14.313Z,18.25
2023-05-19T08:20:33.244Z,18.56
2023-05-19T08:25:51.787Z,18.37
2023-05-19T08:31:10.479Z,19.06
2023-05-19T08:36:28.896Z,19.44
2023-05-19T08:41:47.898Z,19.37
2023-05-19T08:47:06.624Z,19.81
2023-05-19T08:52:25.313Z,19.31
2023-05-19T08:57:43.967Z,20.06
2023-05-19T09:08:22.734Z,20.94
2023-05-19T09:13:41.534Z,20.25
2023-05-19T09:19:00.026Z,19.62
2023-05-19T09:24:18.604Z,20.56
2023-05-19T09:29:37.247Z,20.12
2023-05-19T09:40:02.701Z,20.56
2023-05-19T09:45:20.960Z,19.75
2023-05-19T09:50:39.173Z,20.37
2023-05-19T09:55:58.057Z,20.81
2023-05-19T10:01:16.748Z,20.37
2023-05-19T10:06:35.365Z,20.44
2023-05-19T10:11:53.927Z,21.87
2023-05-19T10:17:12.625Z,22.75
2023-05-19T10:22:31.315Z,22.13
2023-05-19T10:27:49.513Z,21.44
2023-05-19T10:33:08.478Z,22.37
2023-05-19T10:38:27.024Z,22.56
2023-05-19T10:43:45.429Z,22.31
2023-05-19T10:49:04.032Z,21.75
2023-05-19T10:54:22.902Z,23.19
2023-05-19T10:59:41.404Z,20.75
2023-05-19T11:04:59.814Z,20.88
2023-05-19T11:10:18.341Z,20.94
2023-05-19T11:15:36.785Z,20.94
2023-05-19T11:20:55.663Z,21.19
2023-05-19T11:26:14.327Z,21.12
2023-05-19T11:31:32.711Z,20.12
2023-05-19T11:36:51.345Z,20.31
2023-05-19T11:42:09.987Z,20.06
2023-05-19T11:47:28.413Z,19.37
2023-05-19T11:52:46.920Z,19.25
2023-05-19T11:58:05.926Z,19.31
2023-05-19T12:03:26.003Z,19.44
2023-05-19T12:08:44.370Z,19.69
2023-05-19T12:14:02.942Z,19.44
2023-05-19T12:19:21.886Z,19.37
2023-05-19T12:24:40.893Z,19
2023-05-19T12:29:59.744Z,18.69
2023-05-19T12:35:18.780Z,18.69
2023-05-19T12:40:38.472Z,18.87
2023-05-19T12:45:56.671Z,18.81
2023-05-19T12:51:15.564Z,18.44
2023-05-19T12:56:34.275Z,18.75
2023-05-19T13:01:53.260Z,19.06
2023-05-19T13:07:12.247Z,19.06
2023-05-19T13:12:32.362Z,19.19
2023-05-19T13:17:52.304Z,19.62
2023-05-19T13:28:17.594Z,19.06
2023-05-19T13:33:35.936Z,18.5
2023-05-19T13:38:54.664Z,18.5
2023-05-19T13:44:13.510Z,18.75
2023-05-19T13:49:32.485Z,18.75
2023-05-19T13:54:51.254Z,18.44
2023-05-19T14:00:10.091Z,18.19
2023-05-19T14:05:28.574Z,18
2023-05-19T14:10:46.687Z,18.12
2023-05-19T14:16:05.106Z,18.19
2023-05-19T14:21:24.058Z,18.12
2023-05-19T14:26:43.153Z,18.31
2023-05-19T14:32:02.069Z,18.37
2023-05-19T14:37:20.431Z,18.44
2023-05-19T14:42:38.913Z,18.31
2023-05-19T14:47:57.630Z,18.31
2023-05-19T14:53:16.433Z,18.62
2023-05-19T14:58:35.426Z,18.94
2023-05-19T15:03:54.557Z,18.94
2023-05-19T15:09:13.176Z,18.56
2023-05-19T15:14:31.893Z,18.5
2023-05-19T15:19:50.817Z,18.81
2023-05-19T15:25:09.247Z,18.94
2023-05-19T15:30:27.489Z,18.94
2023-05-19T15:35:45.899Z,18.75
2023-05-19T15:41:04.222Z,18.25
2023-05-19T15:51:29.796Z,17.69
2023-05-19T15:56:48.285Z,17.62
2023-05-19T16:02:06.546Z,17.56
2023-05-19T16:07:24.733Z,17.62
2023-05-19T16:12:43.287Z,17.44
2023-05-19T16:18:02.327Z,17.5
2023-05-19T16:23:21.173Z,17.5
2023-05-19T16:28:40.100Z,17.44
2023-05-19T16:33:58.615Z,17.5
2023-05-19T16:39:16.879Z,17.56
2023-05-19T16:44:35.506Z,17.69
2023-05-19T16:49:54.545Z,17.81
2023-05-19T16:55:13.274Z,18
2023-05-19T17:00:31.888Z,18.12
2023-05-19T17:05:50.303Z,18.12
2023-05-19T17:11:10.530Z,18.19
2023-05-19T17:16:29.539Z,18
2023-05-19T17:21:48.299Z,17.81
2023-05-19T17:27:07.195Z,17.81
2023-05-19T17:32:26.134Z,17.69
2023-05-19T17:37:44.808Z,17.56
2023-05-19T17:43:03.709Z,17.5
2023-05-19T17:48:22.559Z,17.37
2023-05-19T17:53:41.483Z,17.25
2023-05-19T17:59:00.304Z,17.31
2023-05-19T18:04:19.279Z,17.19
2023-05-19T18:09:37.840Z,17.25
2023-05-19T18:14:56.688Z,17.25
2023-05-19T18:20:15.418Z,17.06
2023-05-19T18:25:34.148Z,17
2023-05-19T18:30:52.799Z,16.81
2023-05-19T18:36:11.092Z,16.69
2023-05-19T18:41:29.988Z,16.56
2023-05-19T18:46:48.835Z,16.37
2023-05-19T18:52:07.122Z,16.25
2023-05-19T18:57:25.211Z,16.25
2023-05-19T19:02:44.002Z,16.12
2023-05-19T19:08:02.844Z,15.94
2023-05-19T19:13:21.761Z,15.88
2023-05-19T19:23:38.974Z,15.88
2023-05-19T19:28:57.574Z,15.75
2023-05-19T19:34:16.204Z,15.75
2023-05-19T19:39:35.103Z,15.94
2023-05-19T19:44:54.225Z,15.81
2023-05-19T19:50:13.032Z,15.69
2023-05-19T19:55:31.903Z,15.69
2023-05-19T20:05:48.855Z,15.5
2023-05-19T20:11:07.638Z,15.38
2023-05-19T20:16:26.374Z,15.31
2023-05-19T20:21:44.925Z,15.19
2023-05-19T20:32:02.157Z,15.13
2023-05-19T20:37:21.438Z,15.06
2023-05-19T20:42:42.069Z,15.06
2023-05-19T20:48:01.921Z,15.06
2023-05-19T20:53:22.639Z,15
2023-05-19T20:58:41.301Z,15
2023-05-19T21:04:00.057Z,15
2023-05-19T21:09:18.714Z,14.87
2023-05-19T21:14:37.127Z,14.81
2023-05-19T21:19:55.764Z,14.75
2023-05-19T21:25:14.245Z,14.63
2023-05-19T21:30:33.286Z,14.56
2023-05-19T21:35:51.892Z,14.38
2023-05-19T21:46:08.873Z,14.25
2023-05-19T21:51:27.529Z,14.19
2023-05-19T21:56:46.092Z,14.13
2023-05-19T22:02:04.367Z,14.06
2023-05-19T22:07:24.539Z,14
2023-05-19T22:12:43.345Z,13.88
2023-05-19T22:18:01.555Z,13.81
2023-05-19T22:23:20.171Z,13.69
2023-05-19T22:28:38.720Z,13.56
2023-05-19T22:33:57.028Z,13.56
2023-05-19T22:39:17.086Z,13.56
2023-05-19T22:44:35.751Z,13.62
2023-05-19T22:49:54.942Z,13.62
2023-05-19T22:55:12.670Z,13.69
2023-05-19T23:00:30.838Z,13.88
2023-05-19T23:05:51.093Z,13.88
2023-05-19T23:11:09.510Z,13.88
2023-05-19T23:16:28.584Z,13.75
2023-05-19T23:21:46.778Z,13.44
2023-05-19T23:27:05.348Z,13.25
2023-05-19T23:32:23.912Z,13.13
2023-05-19T23:37:42.214Z,13.19
2023-05-19T23:43:00.845Z,13.38
2023-05-19T23:48:19.440Z,13.31
2023-05-19T23:53:38.168Z,13.25
2023-05-19T23:58:56.770Z,13.31
